Mission, Kansas
Current Conditions -  °F | °C
As of 10:54 AM on Friday 24 Oct 2014 (Local Time) from KMKC Reporting Station
Clear Clear  
Wind Chill: 66°   Ceiling: Unl
Heat Index: 66°   Visibility: 8mi
Dew Point: 58°   Wind: 8mph
Humidity: 75%   Direction: 210°SSW
Pressure: 30.04"   Gusts: NA
Location:  39.0241°N, 94.6697°W
Report Text: KMKC 241554Z 21007KT 8SM CLR 19/14 A3004 RMK AO2 SLP170 T01890144
Loading
Personal Weather Stations






























Interactive Weather Map
Tropical Storm Tracking
New forecast layout! Learn more

10-Day Weather Forecast

Advertisements
Track Severe Weather on mobile